sensor_id;sensor_type;location;lat;lon;timestamp;temperature;humidity
2327;DHT22;1174;51.588;7.328;2023-04-26T00:02:27;5.60;99.90
2327;DHT22;1174;51.588;7.328;2023-04-26T00:05:04;5.50;99.90
2327;DHT22;1174;51.588;7.328;2023-04-26T00:07:34;5.30;99.90
2327;DHT22;1174;51.588;7.328;2023-04-26T00:10:10;5.20;99.90
2327;DHT22;1174;51.588;7.328;2023-04-26T00:12:50;5.30;99.90
2327;DHT22;1174;51.588;7.328;2023-04-26T00:15:28;5.20;99.90
2327;DHT22;1174;51.588;7.328;2023-04-26T00:18:09;5.10;99.90
2327;DHT22;1174;51.588;7.328;2023-04-26T00:20:58;5.10;99.90
2327;DHT22;1174;51.588;7.328;2023-04-26T00:23:51;5.20;99.90
2327;DHT22;1174;51.588;7.328;2023-04-26T00:29:17;5.20;99.90
2327;DHT22;1174;51.588;7.328;2023-04-26T00:31:47;5.20;99.90
2327;DHT22;1174;51.588;7.328;2023-04-26T00:34:17;5.10;99.90
2327;DHT22;1174;51.588;7.328;2023-04-26T00:36:44;4.80;99.90
2327;DHT22;1174;51.588;7.328;2023-04-26T00:39:13;4.70;99.90
2327;DHT22;1174;51.588;7.328;2023-04-26T00:41:40;4.90;99.90
2327;DHT22;1174;51.588;7.328;2023-04-26T00:44:07;5.00;99.90
2327;DHT22;1174;51.588;7.328;2023-04-26T00:46:34;5.00;99.90
2327;DHT22;1174;51.588;7.328;2023-04-26T00:49:02;5.00;99.90
2327;DHT22;1174;51.588;7.328;2023-04-26T00:51:30;4.80;99.90
2327;DHT22;1174;51.588;7.328;2023-04-26T00:53:58;4.80;99.90
2327;DHT22;1174;51.588;7.328;2023-04-26T00:56:25;4.80;99.90
2327;DHT22;1174;51.588;7.328;2023-04-26T00:58:54;5.00;99.90
2327;DHT22;1174;51.588;7.328;2023-04-26T01:01:21;4.80;99.90
2327;DHT22;1174;51.588;7.328;2023-04-26T01:03:48;4.60;99.90
2327;DHT22;1174;51.588;7.328;2023-04-26T01:06:15;4.50;99.90
2327;DHT22;1174;51.588;7.328;2023-04-26T01:08:44;4.60;99.90
2327;DHT22;1174;51.588;7.328;2023-04-26T01:11:13;4.70;99.90
2327;DHT22;1174;51.588;7.328;2023-04-26T01:13:41;4.60;99.90
2327;DHT22;1174;51.588;7.328;2023-04-26T01:16:08;4.50;99.90
2327;DHT22;1174;51.588;7.328;2023-04-26T01:18:35;4.50;99.90
2327;DHT22;1174;51.588;7.328;2023-04-26T01:21:02;4.60;99.90
2327;DHT22;1174;51.588;7.328;2023-04-26T01:23:33;4.70;99.90
2327;DHT22;1174;51.588;7.328;2023-04-26T01:26:00;4.70;99.90
2327;DHT22;1174;51.588;7.328;2023-04-26T01:28:27;4.60;99.90
2327;DHT22;1174;51.588;7.328;2023-04-26T01:30:54;4.60;99.90
2327;DHT22;1174;51.588;7.328;2023-04-26T01:33:21;4.60;99.90
2327;DHT22;1174;51.588;7.328;2023-04-26T01:35:48;4.70;99.90
2327;DHT22;1174;51.588;7.328;2023-04-26T01:38:15;4.60;99.90
2327;DHT22;1174;51.588;7.328;2023-04-26T01:40:46;4.50;99.90
2327;DHT22;1174;51.588;7.328;2023-04-26T01:43:14;4.50;99.90
2327;DHT22;1174;51.588;7.328;2023-04-26T01:45:46;4.40;99.90
2327;DHT22;1174;51.588;7.328;2023-04-26T01:48:14;4.30;99.90
2327;DHT22;1174;51.588;7.328;2023-04-26T01:50:41;4.30;99.90
2327;DHT22;1174;51.588;7.328;2023-04-26T01:53:08;4.20;99.90
2327;DHT22;1174;51.588;7.328;2023-04-26T01:55:35;4.10;99.90
2327;DHT22;1174;51.588;7.328;2023-04-26T01:58:03;4.10;99.90
2327;DHT22;1174;51.588;7.328;2023-04-26T02:00:32;4.10;99.90
2327;DHT22;1174;51.588;7.328;2023-04-26T02:02:59;4.10;99.90
2327;DHT22;1174;51.588;7.328;2023-04-26T02:05:29;4.10;99.90
2327;DHT22;1174;51.588;7.328;2023-04-26T02:07:56;4.00;99.90
2327;DHT22;1174;51.588;7.328;2023-04-26T02:10:23;4.00;99.90
2327;DHT22;1174;51.588;7.328;2023-04-26T02:12:54;3.90;99.90
2327;DHT22;1174;51.588;7.328;2023-04-26T02:15:23;3.90;99.90
2327;DHT22;1174;51.588;7.328;2023-04-26T02:17:50;3.80;99.90
2327;DHT22;1174;51.588;7.328;2023-04-26T02:20:18;3.70;99.90
2327;DHT22;1174;51.588;7.328;2023-04-26T02:22:45;3.80;99.90
2327;DHT22;1174;51.588;7.328;2023-04-26T02:25:13;4.00;99.90
2327;DHT22;1174;51.588;7.328;2023-04-26T02:27:41;4.10;99.90
2327;DHT22;1174;51.588;7.328;2023-04-26T02:30:08;4.00;99.90
2327;DHT22;1174;51.588;7.328;2023-04-26T02:32:37;4.00;99.90
2327;DHT22;1174;51.588;7.328;2023-04-26T02:35:05;4.00;99.90
2327;DHT22;1174;51.588;7.328;2023-04-26T02:37:32;4.00;99.90
2327;DHT22;1174;51.588;7.328;2023-04-26T02:39:59;3.90;99.90
2327;DHT22;1174;51.588;7.328;2023-04-26T02:42:27;3.90;99.90
2327;DHT22;1174;51.588;7.328;2023-04-26T02:44:54;3.90;99.90
2327;DHT22;1174;51.588;7.328;2023-04-26T02:47:21;4.00;99.90
2327;DHT22;1174;51.588;7.328;2023-04-26T02:49:49;4.00;99.90
2327;DHT22;1174;51.588;7.328;2023-04-26T02:52:17;4.00;99.90
2327;DHT22;1174;51.588;7.328;2023-04-26T02:54:45;3.90;99.90
2327;DHT22;1174;51.588;7.328;2023-04-26T02:57:12;4.00;99.90
2327;DHT22;1174;51.588;7.328;2023-04-26T02:59:42;3.90;99.90
2327;DHT22;1174;51.588;7.328;2023-04-26T03:02:09;4.00;99.90
2327;DHT22;1174;51.588;7.328;2023-04-26T03:04:37;4.00;99.90
2327;DHT22;1174;51.588;7.328;2023-04-26T03:07:05;4.00;99.90
2327;DHT22;1174;51.588;7.328;2023-04-26T03:09:32;4.00;99.90
2327;DHT22;1174;51.588;7.328;2023-04-26T03:12:03;4.00;99.90
2327;DHT22;1174;51.588;7.328;2023-04-26T03:14:32;3.90;99.90
2327;DHT22;1174;51.588;7.328;2023-04-26T03:16:59;3.90;99.90
2327;DHT22;1174;51.588;7.328;2023-04-26T03:19:27;3.90;99.90
2327;DHT22;1174;51.588;7.328;2023-04-26T03:21:54;3.90;99.90
2327;DHT22;1174;51.588;7.328;2023-04-26T03:24:23;3.70;99.90
2327;DHT22;1174;51.588;7.328;2023-04-26T03:26:50;3.80;99.90
2327;DHT22;1174;51.588;7.328;2023-04-26T03:29:18;3.70;99.90
2327;DHT22;1174;51.588;7.328;2023-04-26T03:31:45;3.70;99.90
2327;DHT22;1174;51.588;7.328;2023-04-26T03:34:12;3.80;99.90
2327;DHT22;1174;51.588;7.328;2023-04-26T03:36:39;3.80;99.90
2327;DHT22;1174;51.588;7.328;2023-04-26T03:39:06;3.80;99.90
2327;DHT22;1174;51.588;7.328;2023-04-26T03:41:35;3.80;99.90
2327;DHT22;1174;51.588;7.328;2023-04-26T03:44:04;3.80;99.90
2327;DHT22;1174;51.588;7.328;2023-04-26T03:46:31;3.80;99.90
2327;DHT22;1174;51.588;7.328;2023-04-26T03:48:58;3.70;99.90
2327;DHT22;1174;51.588;7.328;2023-04-26T03:51:25;3.50;99.90
2327;DHT22;1174;51.588;7.328;2023-04-26T03:53:56;3.40;99.90
2327;DHT22;1174;51.588;7.328;2023-04-26T03:56:24;3.40;99.90
2327;DHT22;1174;51.588;7.328;2023-04-26T03:58:52;3.40;99.90
2327;DHT22;1174;51.588;7.328;2023-04-26T04:01:19;3.40;99.90
2327;DHT22;1174;51.588;7.328;2023-04-26T04:03:46;3.40;99.90
2327;DHT22;1174;51.588;7.328;2023-04-26T04:06:13;3.50;99.90
2327;DHT22;1174;51.588;7.328;2023-04-26T04:08:40;3.60;99.90
2327;DHT22;1174;51.588;7.328;2023-04-26T04:11:08;3.70;99.90
2327;DHT22;1174;51.588;7.328;2023-04-26T04:13:37;3.70;99.90
2327;DHT22;1174;51.588;7.328;2023-04-26T04:16:07;3.70;99.90
2327;DHT22;1174;51.588;7.328;2023-04-26T04:18:35;3.70;99.90
2327;DHT22;1174;51.588;7.328;2023-04-26T04:21:02;3.50;99.90
2327;DHT22;1174;51.588;7.328;2023-04-26T04:23:32;3.50;99.90
2327;DHT22;1174;51.588;7.328;2023-04-26T04:26:02;3.60;99.90
2327;DHT22;1174;51.588;7.328;2023-04-26T04:28:32;3.50;99.90
2327;DHT22;1174;51.588;7.328;2023-04-26T04:31:01;3.40;99.90
2327;DHT22;1174;51.588;7.328;2023-04-26T04:33:30;3.50;99.90
2327;DHT22;1174;51.588;7.328;2023-04-26T04:35:57;3.50;99.90
2327;DHT22;1174;51.588;7.328;2023-04-26T04:38:25;3.50;99.90
2327;DHT22;1174;51.588;7.328;2023-04-26T04:40:54;3.50;99.90
2327;DHT22;1174;51.588;7.328;2023-04-26T04:43:21;3.70;99.90
2327;DHT22;1174;51.588;7.328;2023-04-26T04:45:48;3.60;99.90
2327;DHT22;1174;51.588;7.328;2023-04-26T04:48:23;3.50;99.90
2327;DHT22;1174;51.588;7.328;2023-04-26T04:50:55;3.50;99.90
2327;DHT22;1174;51.588;7.328;2023-04-26T04:53:22;3.60;99.90
2327;DHT22;1174;51.588;7.328;2023-04-26T04:55:50;3.90;99.90
2327;DHT22;1174;51.588;7.328;2023-04-26T04:58:17;4.00;99.90
2327;DHT22;1174;51.588;7.328;2023-04-26T05:00:46;4.10;99.90
2327;DHT22;1174;51.588;7.328;2023-04-26T05:03:13;4.10;99.90
2327;DHT22;1174;51.588;7.328;2023-04-26T05:05:40;4.30;99.90
2327;DHT22;1174;51.588;7.328;2023-04-26T05:08:13;4.50;99.90
2327;DHT22;1174;51.588;7.328;2023-04-26T05:10:41;4.80;99.90
2327;DHT22;1174;51.588;7.328;2023-04-26T05:13:08;5.10;99.90
2327;DHT22;1174;51.588;7.328;2023-04-26T05:15:35;5.50;99.90
2327;DHT22;1174;51.588;7.328;2023-04-26T05:18:04;5.80;99.90
2327;DHT22;1174;51.588;7.328;2023-04-26T05:20:32;6.00;99.90
2327;DHT22;1174;51.588;7.328;2023-04-26T05:23:01;6.20;99.90
2327;DHT22;1174;51.588;7.328;2023-04-26T05:26:02;6.50;99.90
2327;DHT22;1174;51.588;7.328;2023-04-26T05:28:45;6.80;99.90
2327;DHT22;1174;51.588;7.328;2023-04-26T05:33:45;7.10;99.90
2327;DHT22;1174;51.588;7.328;2023-04-26T05:34:42;7.20;99.90
2327;DHT22;1174;51.588;7.328;2023-04-26T05:37:12;7.60;99.90
2327;DHT22;1174;51.588;7.328;2023-04-26T05:42:30;7.70;99.90
2327;DHT22;1174;51.588;7.328;2023-04-26T05:45:04;7.90;99.90
2327;DHT22;1174;51.588;7.328;2023-04-26T05:47:52;8.30;99.90
2327;DHT22;1174;51.588;7.328;2023-04-26T05:53:18;8.70;99.90
2327;DHT22;1174;51.588;7.328;2023-04-26T05:55:48;8.70;99.90
2327;DHT22;1174;51.588;7.328;2023-04-26T05:58:27;9.00;99.90
2327;DHT22;1174;51.588;7.328;2023-04-26T06:01:03;9.30;99.90
2327;DHT22;1174;51.588;7.328;2023-04-26T06:03:30;9.40;99.90
2327;DHT22;1174;51.588;7.328;2023-04-26T06:06:01;9.40;99.90
2327;DHT22;1174;51.588;7.328;2023-04-26T06:08:29;9.50;99.90
2327;DHT22;1174;51.588;7.328;2023-04-26T06:10:59;9.80;99.90
2327;DHT22;1174;51.588;7.328;2023-04-26T06:13:38;10.00;99.90
2327;DHT22;1174;51.588;7.328;2023-04-26T06:16:05;10.00;99.90
2327;DHT22;1174;51.588;7.328;2023-04-26T06:18:35;9.80;99.90
2327;DHT22;1174;51.588;7.328;2023-04-26T06:21:04;9.50;99.90
2327;DHT22;1174;51.588;7.328;2023-04-26T06:24:00;9.60;99.90
2327;DHT22;1174;51.588;7.328;2023-04-26T06:26:47;9.80;99.90
2327;DHT22;1174;51.588;7.328;2023-04-26T06:29:16;9.70;99.90
2327;DHT22;1174;51.588;7.328;2023-04-26T06:31:58;10.00;99.90
2327;DHT22;1174;51.588;7.328;2023-04-26T06:35:18;9.90;99.90
2327;DHT22;1174;51.588;7.328;2023-04-26T06:37:54;10.30;99.90
2327;DHT22;1174;51.588;7.328;2023-04-26T06:40:35;10.40;99.90
2327;DHT22;1174;51.588;7.328;2023-04-26T06:43:21;10.60;99.90
2327;DHT22;1174;51.588;7.328;2023-04-26T06:46:36;11.00;99.90
2327;DHT22;1174;51.588;7.328;2023-04-26T06:49:42;11.40;99.90
2327;DHT22;1174;51.588;7.328;2023-04-26T06:52:11;12.10;99.90
2327;DHT22;1174;51.588;7.328;2023-04-26T06:54:43;12.50;99.90
2327;DHT22;1174;51.588;7.328;2023-04-26T06:57:21;12.80;99.90
2327;DHT22;1174;51.588;7.328;2023-04-26T07:00:15;12.90;99.90
2327;DHT22;1174;51.588;7.328;2023-04-26T07:02:46;13.00;99.90
2327;DHT22;1174;51.588;7.328;2023-04-26T07:05:18;12.90;99.90
2327;DHT22;1174;51.588;7.328;2023-04-26T07:07:48;12.70;99.90
2327;DHT22;1174;51.588;7.328;2023-04-26T07:10:23;12.70;99.90
2327;DHT22;1174;51.588;7.328;2023-04-26T07:12:51;12.70;99.90
2327;DHT22;1174;51.588;7.328;2023-04-26T07:15:18;13.10;99.90
2327;DHT22;1174;51.588;7.328;2023-04-26T07:17:51;13.20;99.90
2327;DHT22;1174;51.588;7.328;2023-04-26T07:20:22;13.40;99.90
2327;DHT22;1174;51.588;7.328;2023-04-26T07:22:52;13.50;99.90
2327;DHT22;1174;51.588;7.328;2023-04-26T07:25:28;13.50;99.90
2327;DHT22;1174;51.588;7.328;2023-04-26T07:27:55;13.30;99.90
2327;DHT22;1174;51.588;7.328;2023-04-26T07:30:25;12.60;99.90
2327;DHT22;1174;51.588;7.328;2023-04-26T07:32:59;12.90;99.90
2327;DHT22;1174;51.588;7.328;2023-04-26T07:35:27;12.80;99.90
2327;DHT22;1174;51.588;7.328;2023-04-26T07:37:57;12.80;99.90
2327;DHT22;1174;51.588;7.328;2023-04-26T07:40:25;12.90;99.90
2327;DHT22;1174;51.588;7.328;2023-04-26T07:42:54;13.00;99.90
2327;DHT22;1174;51.588;7.328;2023-04-26T07:45:20;13.10;99.90
2327;DHT22;1174;51.588;7.328;2023-04-26T07:47:51;13.10;99.90
2327;DHT22;1174;51.588;7.328;2023-04-26T07:50:36;13.30;99.90
2327;DHT22;1174;51.588;7.328;2023-04-26T07:53:06;13.40;99.90
2327;DHT22;1174;51.588;7.328;2023-04-26T07:55:33;13.30;99.90
2327;DHT22;1174;51.588;7.328;2023-04-26T07:58:03;13.30;99.90
2327;DHT22;1174;51.588;7.328;2023-04-26T08:00:56;13.70;99.90
2327;DHT22;1174;51.588;7.328;2023-04-26T08:03:35;13.20;99.90
2327;DHT22;1174;51.588;7.328;2023-04-26T08:09:35;13.20;99.90
2327;DHT22;1174;51.588;7.328;2023-04-26T08:12:22;13.20;99.90
2327;DHT22;1174;51.588;7.328;2023-04-26T08:14:56;13.40;99.90
2327;DHT22;1174;51.588;7.328;2023-04-26T08:17:34;12.80;99.90
2327;DHT22;1174;51.588;7.328;2023-04-26T08:20:14;12.40;99.90
2327;DHT22;1174;51.588;7.328;2023-04-26T08:22:49;12.10;99.90
2327;DHT22;1174;51.588;7.328;2023-04-26T08:25:21;11.70;99.90
2327;DHT22;1174;51.588;7.328;2023-04-26T08:27:49;11.00;99.90
2327;DHT22;1174;51.588;7.328;2023-04-26T08:30:20;10.80;99.90
2327;DHT22;1174;51.588;7.328;2023-04-26T08:32:47;10.70;99.90
2327;DHT22;1174;51.588;7.328;2023-04-26T08:35:14;10.60;99.90
2327;DHT22;1174;51.588;7.328;2023-04-26T08:37:44;10.70;99.90
2327;DHT22;1174;51.588;7.328;2023-04-26T08:40:13;11.10;99.90
2327;DHT22;1174;51.588;7.328;2023-04-26T08:42:51;11.60;99.90
2327;DHT22;1174;51.588;7.328;2023-04-26T08:45:20;12.50;99.90
2327;DHT22;1174;51.588;7.328;2023-04-26T08:47:47;12.90;99.90
2327;DHT22;1174;51.588;7.328;2023-04-26T08:50:19;13.40;99.90
2327;DHT22;1174;51.588;7.328;2023-04-26T08:53:08;14.20;98.20
2327;DHT22;1174;51.588;7.328;2023-04-26T08:56:04;14.50;95.80
2327;DHT22;1174;51.588;7.328;2023-04-26T08:59:16;14.80;94.60
2327;DHT22;1174;51.588;7.328;2023-04-26T09:02:18;14.80;94.50
2327;DHT22;1174;51.588;7.328;2023-04-26T09:05:13;15.30;95.00
2327;DHT22;1174;51.588;7.328;2023-04-26T09:08:50;15.60;93.70
2327;DHT22;1174;51.588;7.328;2023-04-26T09:12:13;14.30;96.10
2327;DHT22;1174;51.588;7.328;2023-04-26T09:14:49;13.30;95.40
2327;DHT22;1174;51.588;7.328;2023-04-26T09:17:28;13.10;97.50
2327;DHT22;1174;51.588;7.328;2023-04-26T09:19:56;13.50;95.60
2327;DHT22;1174;51.588;7.328;2023-04-26T09:22:30;13.70;94.40
2327;DHT22;1174;51.588;7.328;2023-04-26T09:25:08;14.10;94.60
2327;DHT22;1174;51.588;7.328;2023-04-26T09:27:44;15.50;95.60
2327;DHT22;1174;51.588;7.328;2023-04-26T09:30:13;16.50;90.50
2327;DHT22;1174;51.588;7.328;2023-04-26T09:32:52;15.80;90.70
2327;DHT22;1174;51.588;7.328;2023-04-26T09:35:29;15.30;90.00
2327;DHT22;1174;51.588;7.328;2023-04-26T09:38:17;14.60;92.10
2327;DHT22;1174;51.588;7.328;2023-04-26T09:41:00;14.10;92.00
2327;DHT22;1174;51.588;7.328;2023-04-26T09:43:36;13.80;91.80
2327;DHT22;1174;51.588;7.328;2023-04-26T09:46:07;13.20;92.70
2327;DHT22;1174;51.588;7.328;2023-04-26T09:48:39;12.80;93.20
2327;DHT22;1174;51.588;7.328;2023-04-26T09:51:09;12.00;95.60
2327;DHT22;1174;51.588;7.328;2023-04-26T09:53:39;11.60;96.30
2327;DHT22;1174;51.588;7.328;2023-04-26T09:56:08;11.20;97.00
2327;DHT22;1174;51.588;7.328;2023-04-26T09:58:55;11.30;97.50
2327;DHT22;1174;51.588;7.328;2023-04-26T10:01:24;11.30;98.20
2327;DHT22;1174;51.588;7.328;2023-04-26T10:03:59;11.30;96.40
2327;DHT22;1174;51.588;7.328;2023-04-26T10:06:33;11.30;95.70
2327;DHT22;1174;51.588;7.328;2023-04-26T10:09:02;11.20;96.90
2327;DHT22;1174;51.588;7.328;2023-04-26T10:11:30;11.40;96.30
2327;DHT22;1174;51.588;7.328;2023-04-26T10:14:01;11.60;96.90
2327;DHT22;1174;51.588;7.328;2023-04-26T10:16:30;11.90;95.90
2327;DHT22;1174;51.588;7.328;2023-04-26T10:19:00;11.90;94.50
2327;DHT22;1174;51.588;7.328;2023-04-26T10:21:30;12.40;96.30
2327;DHT22;1174;51.588;7.328;2023-04-26T10:24:00;13.00;93.80
2327;DHT22;1174;51.588;7.328;2023-04-26T10:26:51;13.30;92.10
2327;DHT22;1174;51.588;7.328;2023-04-26T10:29:30;13.40;92.40
2327;DHT22;1174;51.588;7.328;2023-04-26T10:32:17;13.40;93.30
2327;DHT22;1174;51.588;7.328;2023-04-26T10:34:45;13.20;92.90
2327;DHT22;1174;51.588;7.328;2023-04-26T10:37:35;13.00;92.90
2327;DHT22;1174;51.588;7.328;2023-04-26T10:40:23;12.80;92.50
2327;DHT22;1174;51.588;7.328;2023-04-26T10:42:50;12.40;94.00
2327;DHT22;1174;51.588;7.328;2023-04-26T10:45:42;12.40;93.10
2327;DHT22;1174;51.588;7.328;2023-04-26T10:48:17;12.30;92.30
2327;DHT22;1174;51.588;7.328;2023-04-26T10:51:08;12.60;92.70
2327;DHT22;1174;51.588;7.328;2023-04-26T10:53:57;12.90;92.40
2327;DHT22;1174;51.588;7.328;2023-04-26T10:56:49;12.90;92.40
2327;DHT22;1174;51.588;7.328;2023-04-26T10:59:20;12.80;91.80
2327;DHT22;1174;51.588;7.328;2023-04-26T11:02:35;12.80;92.40
2327;DHT22;1174;51.588;7.328;2023-04-26T11:05:37;13.30;93.10
2327;DHT22;1174;51.588;7.328;2023-04-26T11:08:35;15.00;91.70
2327;DHT22;1174;51.588;7.328;2023-04-26T11:15:08;16.50;85.20
2327;DHT22;1174;51.588;7.328;2023-04-26T11:21:18;16.80;79.70
2327;DHT22;1174;51.588;7.328;2023-04-26T11:24:01;16.20;78.50
2327;DHT22;1174;51.588;7.328;2023-04-26T11:26:55;16.20;81.40
2327;DHT22;1174;51.588;7.328;2023-04-26T11:29:36;17.00;80.90
2327;DHT22;1174;51.588;7.328;2023-04-26T11:32:20;17.90;76.80
2327;DHT22;1174;51.588;7.328;2023-04-26T11:41:39;18.00;67.40
2327;DHT22;1174;51.588;7.328;2023-04-26T11:44:06;17.00;69.60
2327;DHT22;1174;51.588;7.328;2023-04-26T11:46:33;15.90;71.90
2327;DHT22;1174;51.588;7.328;2023-04-26T11:49:01;15.00;73.50
2327;DHT22;1174;51.588;7.328;2023-04-26T11:51:31;14.80;76.60
2327;DHT22;1174;51.588;7.328;2023-04-26T11:53:59;14.20;75.90
2327;DHT22;1174;51.588;7.328;2023-04-26T11:56:28;13.90;76.80
2327;DHT22;1174;51.588;7.328;2023-04-26T11:58:59;13.90;80.40
2327;DHT22;1174;51.588;7.328;2023-04-26T12:01:27;13.50;76.20
2327;DHT22;1174;51.588;7.328;2023-04-26T12:03:56;13.80;80.00
2327;DHT22;1174;51.588;7.328;2023-04-26T12:06:29;14.40;76.80
2327;DHT22;1174;51.588;7.328;2023-04-26T12:08:59;14.20;74.10
2327;DHT22;1174;51.588;7.328;2023-04-26T12:11:27;14.10;73.60
2327;DHT22;1174;51.588;7.328;2023-04-26T12:13:58;14.00;76.80
2327;DHT22;1174;51.588;7.328;2023-04-26T12:16:28;13.80;73.60
2327;DHT22;1174;51.588;7.328;2023-04-26T12:18:55;13.70;72.90
2327;DHT22;1174;51.588;7.328;2023-04-26T12:21:23;13.50;77.10
2327;DHT22;1174;51.588;7.328;2023-04-26T12:23:50;13.50;74.90
2327;DHT22;1174;51.588;7.328;2023-04-26T12:26:18;13.60;75.20
2327;DHT22;1174;51.588;7.328;2023-04-26T12:28:45;13.50;78.50
2327;DHT22;1174;51.588;7.328;2023-04-26T12:31:14;13.50;77.00
2327;DHT22;1174;51.588;7.328;2023-04-26T12:33:41;13.00;79.80
2327;DHT22;1174;51.588;7.328;2023-04-26T12:36:11;12.90;80.60
2327;DHT22;1174;51.588;7.328;2023-04-26T12:38:43;12.80;83.20
2327;DHT22;1174;51.588;7.328;2023-04-26T12:41:10;12.80;85.00
2327;DHT22;1174;51.588;7.328;2023-04-26T12:43:37;12.60;83.50
2327;DHT22;1174;51.588;7.328;2023-04-26T12:46:04;12.70;85.50
2327;DHT22;1174;51.588;7.328;2023-04-26T12:48:34;12.70;84.20
2327;DHT22;1174;51.588;7.328;2023-04-26T12:51:02;12.60;84.70
2327;DHT22;1174;51.588;7.328;2023-04-26T12:53:29;12.60;84.40
2327;DHT22;1174;51.588;7.328;2023-04-26T12:55:56;12.80;84.70
2327;DHT22;1174;51.588;7.328;2023-04-26T12:58:24;13.40;85.10
2327;DHT22;1174;51.588;7.328;2023-04-26T13:00:51;13.40;82.40
2327;DHT22;1174;51.588;7.328;2023-04-26T13:03:18;13.40;82.50
2327;DHT22;1174;51.588;7.328;2023-04-26T13:05:48;13.80;82.60
2327;DHT22;1174;51.588;7.328;2023-04-26T13:08:15;14.00;83.50
2327;DHT22;1174;51.588;7.328;2023-04-26T13:10:47;13.90;82.70
2327;DHT22;1174;51.588;7.328;2023-04-26T13:13:14;13.90;82.20
2327;DHT22;1174;51.588;7.328;2023-04-26T13:15:41;14.00;85.10
2327;DHT22;1174;51.588;7.328;2023-04-26T13:18:08;14.10;81.70
2327;DHT22;1174;51.588;7.328;2023-04-26T13:20:38;13.90;82.80
2327;DHT22;1174;51.588;7.328;2023-04-26T13:23:08;13.40;81.60
2327;DHT22;1174;51.588;7.328;2023-04-26T13:25:36;13.60;82.90
2327;DHT22;1174;51.588;7.328;2023-04-26T13:28:03;13.60;81.70
2327;DHT22;1174;51.588;7.328;2023-04-26T13:30:40;14.00;84.20
2327;DHT22;1174;51.588;7.328;2023-04-26T13:33:23;14.00;81.90
2327;DHT22;1174;51.588;7.328;2023-04-26T13:35:50;14.50;79.30
2327;DHT22;1174;51.588;7.328;2023-04-26T13:38:32;14.60;79.00
2327;DHT22;1174;51.588;7.328;2023-04-26T13:40:59;14.80;79.30
2327;DHT22;1174;51.588;7.328;2023-04-26T13:43:27;14.70;78.00
2327;DHT22;1174;51.588;7.328;2023-04-26T13:45:54;14.50;78.20
2327;DHT22;1174;51.588;7.328;2023-04-26T13:48:32;14.40;79.50
2327;DHT22;1174;51.588;7.328;2023-04-26T13:50:59;14.30;80.00
2327;DHT22;1174;51.588;7.328;2023-04-26T13:53:31;14.10;80.50
2327;DHT22;1174;51.588;7.328;2023-04-26T13:55:59;14.00;79.90
2327;DHT22;1174;51.588;7.328;2023-04-26T13:58:26;14.00;81.00
2327;DHT22;1174;51.588;7.328;2023-04-26T14:00:54;14.20;79.20
2327;DHT22;1174;51.588;7.328;2023-04-26T14:03:24;13.70;77.40
2327;DHT22;1174;51.588;7.328;2023-04-26T14:05:51;13.50;77.30
2327;DHT22;1174;51.588;7.328;2023-04-26T14:08:23;13.50;79.10
2327;DHT22;1174;51.588;7.328;2023-04-26T14:10:52;13.60;78.70
2327;DHT22;1174;51.588;7.328;2023-04-26T14:13:28;14.80;81.10
2327;DHT22;1174;51.588;7.328;2023-04-26T14:15:59;16.00;76.80
2327;DHT22;1174;51.588;7.328;2023-04-26T14:18:27;15.70;76.00
2327;DHT22;1174;51.588;7.328;2023-04-26T14:20:54;15.30;76.50
2327;DHT22;1174;51.588;7.328;2023-04-26T14:23:21;14.80;73.50
2327;DHT22;1174;51.588;7.328;2023-04-26T14:25:52;14.60;72.90
2327;DHT22;1174;51.588;7.328;2023-04-26T14:28:19;14.40;72.50
2327;DHT22;1174;51.588;7.328;2023-04-26T14:30:48;14.00;74.00
2327;DHT22;1174;51.588;7.328;2023-04-26T14:33:15;13.60;74.30
2327;DHT22;1174;51.588;7.328;2023-04-26T14:35:45;13.30;75.50
2327;DHT22;1174;51.588;7.328;2023-04-26T14:38:13;13.20;78.50
2327;DHT22;1174;51.588;7.328;2023-04-26T14:40:40;13.10;80.50
2327;DHT22;1174;51.588;7.328;2023-04-26T14:43:11;13.10;77.80
2327;DHT22;1174;51.588;7.328;2023-04-26T14:45:40;13.10;79.60
2327;DHT22;1174;51.588;7.328;2023-04-26T14:48:10;13.20;79.40
2327;DHT22;1174;51.588;7.328;2023-04-26T14:50:38;13.30;78.50
2327;DHT22;1174;51.588;7.328;2023-04-26T14:53:06;13.10;79.40
2327;DHT22;1174;51.588;7.328;2023-04-26T14:55:36;12.90;79.10
2327;DHT22;1174;51.588;7.328;2023-04-26T14:58:05;12.90;80.60
2327;DHT22;1174;51.588;7.328;2023-04-26T15:00:36;13.10;81.00
2327;DHT22;1174;51.588;7.328;2023-04-26T15:03:04;13.20;81.40
2327;DHT22;1174;51.588;7.328;2023-04-26T15:05:33;13.30;80.50
2327;DHT22;1174;51.588;7.328;2023-04-26T15:08:00;13.40;82.50
2327;DHT22;1174;51.588;7.328;2023-04-26T15:10:30;13.80;79.90
2327;DHT22;1174;51.588;7.328;2023-04-26T15:12:57;13.90;79.30
2327;DHT22;1174;51.588;7.328;2023-04-26T15:15:24;13.70;78.70
2327;DHT22;1174;51.588;7.328;2023-04-26T15:17:53;13.60;79.40
2327;DHT22;1174;51.588;7.328;2023-04-26T15:20:23;13.30;81.30
2327;DHT22;1174;51.588;7.328;2023-04-26T15:22:53;13.40;82.70
2327;DHT22;1174;51.588;7.328;2023-04-26T15:25:20;13.40;79.90
2327;DHT22;1174;51.588;7.328;2023-04-26T15:27:48;13.40;81.00
2327;DHT22;1174;51.588;7.328;2023-04-26T15:30:16;13.20;80.20
2327;DHT22;1174;51.588;7.328;2023-04-26T15:32:46;13.00;80.40
2327;DHT22;1174;51.588;7.328;2023-04-26T15:35:16;13.00;81.80
2327;DHT22;1174;51.588;7.328;2023-04-26T15:37:43;12.90;81.70
2327;DHT22;1174;51.588;7.328;2023-04-26T15:40:11;13.00;82.20
2327;DHT22;1174;51.588;7.328;2023-04-26T15:42:38;12.90;80.40
2327;DHT22;1174;51.588;7.328;2023-04-26T15:45:07;12.90;80.60
2327;DHT22;1174;51.588;7.328;2023-04-26T15:47:34;13.00;80.60
2327;DHT22;1174;51.588;7.328;2023-04-26T15:50:06;13.30;80.90
2327;DHT22;1174;51.588;7.328;2023-04-26T15:52:37;13.40;78.90
2327;DHT22;1174;51.588;7.328;2023-04-26T15:55:05;13.40;78.90
2327;DHT22;1174;51.588;7.328;2023-04-26T15:57:33;13.50;79.90
2327;DHT22;1174;51.588;7.328;2023-04-26T16:00:00;13.40;76.70
2327;DHT22;1174;51.588;7.328;2023-04-26T16:02:31;13.30;79.20
2327;DHT22;1174;51.588;7.328;2023-04-26T16:04:58;13.10;76.40
2327;DHT22;1174;51.588;7.328;2023-04-26T16:07:25;13.20;77.10
2327;DHT22;1174;51.588;7.328;2023-04-26T16:09:56;13.30;77.30
2327;DHT22;1174;51.588;7.328;2023-04-26T16:12:23;13.10;77.00
2327;DHT22;1174;51.588;7.328;2023-04-26T16:14:52;13.10;77.50
2327;DHT22;1174;51.588;7.328;2023-04-26T16:17:19;13.10;76.20
2327;DHT22;1174;51.588;7.328;2023-04-26T16:19:46;13.20;80.00
2327;DHT22;1174;51.588;7.328;2023-04-26T16:22:16;13.30;80.30
2327;DHT22;1174;51.588;7.328;2023-04-26T16:24:43;13.30;79.00
2327;DHT22;1174;51.588;7.328;2023-04-26T16:27:14;13.20;78.40
2327;DHT22;1174;51.588;7.328;2023-04-26T16:29:47;13.10;79.20
2327;DHT22;1174;51.588;7.328;2023-04-26T16:32:21;13.10;77.80
2327;DHT22;1174;51.588;7.328;2023-04-26T16:34:58;13.10;78.40
2327;DHT22;1174;51.588;7.328;2023-04-26T16:37:27;12.90;78.30
2327;DHT22;1174;51.588;7.328;2023-04-26T16:40:02;12.80;77.90
2327;DHT22;1174;51.588;7.328;2023-04-26T16:42:32;12.80;78.50
2327;DHT22;1174;51.588;7.328;2023-04-26T16:45:02;12.70;78.90
2327;DHT22;1174;51.588;7.328;2023-04-26T16:47:30;12.80;80.20
2327;DHT22;1174;51.588;7.328;2023-04-26T16:49:57;12.70;79.60
2327;DHT22;1174;51.588;7.328;2023-04-26T16:52:24;12.70;80.70
2327;DHT22;1174;51.588;7.328;2023-04-26T16:54:54;12.70;81.50
2327;DHT22;1174;51.588;7.328;2023-04-26T16:57:22;12.60;80.90
2327;DHT22;1174;51.588;7.328;2023-04-26T16:59:51;12.60;80.30
2327;DHT22;1174;51.588;7.328;2023-04-26T17:02:20;12.60;81.90
2327;DHT22;1174;51.588;7.328;2023-04-26T17:04:50;12.50;82.00
2327;DHT22;1174;51.588;7.328;2023-04-26T17:07:19;12.50;81.80